createdAt,value
2018-09-17T00:00:15.490Z,2.70
2018-09-17T00:02:44.190Z,2.73
2018-09-17T00:05:12.853Z,3.73
2018-09-17T00:07:41.525Z,2.87
2018-09-17T00:10:10.301Z,2.80
2018-09-17T00:12:38.944Z,2.87
2018-09-17T00:15:07.636Z,3.30
2018-09-17T00:17:36.303Z,3.03
2018-09-17T00:20:04.991Z,2.90
2018-09-17T00:22:33.653Z,3.10
2018-09-17T00:25:02.380Z,2.87
2018-09-17T00:27:31.017Z,3.00
2018-09-17T00:29:59.698Z,2.67
2018-09-17T00:32:28.422Z,2.63
2018-09-17T00:34:57.105Z,3.27
2018-09-17T00:37:25.803Z,3.07
2018-09-17T00:39:54.526Z,2.70
2018-09-17T00:42:23.252Z,2.90
2018-09-17T00:44:51.949Z,3.13
2018-09-17T00:47:20.587Z,3.10
2018-09-17T00:49:49.305Z,2.80
2018-09-17T00:52:18.005Z,3.00
2018-09-17T00:54:46.685Z,3.13
2018-09-17T00:57:15.368Z,3.10
2018-09-17T00:59:44.031Z,3.23
2018-09-17T01:02:12.763Z,3.07
2018-09-17T01:04:41.477Z,2.90
2018-09-17T01:07:10.189Z,3.00
2018-09-17T01:09:42.520Z,2.80
2018-09-17T01:12:12.713Z,2.90
2018-09-17T01:14:41.466Z,3.07
2018-09-17T01:17:10.158Z,2.90
2018-09-17T01:19:38.860Z,3.23
2018-09-17T01:22:07.576Z,3.00
2018-09-17T01:24:36.236Z,2.77
2018-09-17T01:27:04.912Z,2.87
2018-09-17T01:29:33.620Z,2.80
2018-09-17T01:32:02.301Z,2.70
2018-09-17T01:34:31.377Z,2.60
2018-09-17T01:37:00.102Z,2.93
2018-09-17T01:39:28.775Z,3.03
2018-09-17T01:41:57.486Z,3.27
2018-09-17T01:44:26.270Z,3.00
2018-09-17T01:46:54.942Z,3.33
2018-09-17T01:49:23.580Z,3.50
2018-09-17T01:51:52.273Z,3.30
2018-09-17T01:54:20.946Z,3.00
2018-09-17T01:56:49.619Z,3.40
2018-09-17T01:59:18.294Z,3.43
2018-09-17T02:01:47.065Z,3.27
2018-09-17T02:04:15.769Z,3.23
2018-09-17T02:06:44.468Z,3.00
2018-09-17T02:09:13.193Z,3.27
2018-09-17T02:11:41.893Z,3.20
2018-09-17T02:14:10.629Z,3.07
2018-09-17T02:16:39.287Z,3.40
2018-09-17T02:19:08.052Z,3.37
2018-09-17T02:21:36.827Z,3.30
2018-09-17T02:24:05.574Z,3.83
2018-09-17T02:26:34.248Z,3.70
2018-09-17T02:29:02.977Z,4.07
2018-09-17T02:31:31.690Z,3.73
2018-09-17T02:34:00.448Z,3.63
2018-09-17T02:36:29.165Z,3.70
2018-09-17T02:38:57.841Z,3.27
2018-09-17T02:41:26.623Z,3.63
2018-09-17T02:43:55.330Z,3.20
2018-09-17T02:46:24.045Z,3.13
2018-09-17T02:48:52.732Z,3.60
2018-09-17T02:51:21.482Z,3.60
2018-09-17T02:53:50.203Z,3.60
2018-09-17T02:56:18.896Z,3.70
2018-09-17T02:58:47.590Z,3.57
2018-09-17T03:01:16.326Z,4.27
2018-09-17T03:03:45.010Z,3.20
2018-09-17T03:06:13.676Z,3.30
2018-09-17T03:08:42.362Z,3.67
2018-09-17T03:11:11.024Z,3.67
2018-09-17T03:13:39.752Z,3.40
2018-09-17T03:16:08.500Z,3.50
2018-09-17T03:18:48.901Z,3.30
2018-09-17T03:21:17.657Z,3.37
2018-09-17T03:23:46.342Z,3.80
2018-09-17T03:26:18.328Z,3.10
2018-09-17T03:28:47.100Z,3.53
2018-09-17T03:31:15.861Z,3.10
2018-09-17T03:33:44.572Z,3.37
2018-09-17T03:36:13.278Z,3.70
2018-09-17T03:38:43.889Z,2.90
2018-09-17T03:41:13.302Z,3.53
2018-09-17T03:43:44.270Z,3.30
2018-09-17T03:46:12.982Z,2.90
2018-09-17T03:48:42.034Z,3.90
2018-09-17T03:51:11.514Z,2.93
2018-09-17T03:53:40.141Z,3.00
2018-09-17T03:56:08.899Z,3.50
2018-09-17T03:58:37.537Z,3.50
2018-09-17T04:01:06.348Z,2.90
2018-09-17T04:03:35.017Z,3.20
2018-09-17T04:06:03.689Z,3.50
2018-09-17T04:08:33.296Z,3.20
2018-09-17T04:11:01.952Z,3.03
2018-09-17T04:13:30.645Z,3.27
2018-09-17T04:15:59.359Z,3.50
2018-09-17T04:18:28.041Z,3.13
2018-09-17T04:20:56.718Z,3.70
2018-09-17T04:23:32.770Z,3.00
2018-09-17T04:26:01.816Z,3.23
2018-09-17T04:28:30.498Z,3.40
2018-09-17T04:30:59.253Z,3.40
2018-09-17T04:33:29.491Z,3.50
2018-09-17T04:35:58.186Z,3.70
2018-09-17T04:38:26.874Z,3.93
2018-09-17T04:40:55.629Z,4.03
2018-09-17T04:43:24.390Z,3.60
2018-09-17T04:45:53.066Z,3.70
2018-09-17T04:48:21.743Z,3.50
2018-09-17T04:50:50.388Z,3.70
2018-09-17T04:53:19.055Z,3.90
2018-09-17T04:55:47.731Z,3.50
2018-09-17T04:58:16.412Z,3.60
2018-09-17T05:00:45.113Z,3.47
2018-09-17T05:03:13.770Z,3.50
2018-09-17T05:05:42.519Z,4.00
2018-09-17T05:08:11.241Z,3.97
2018-09-17T05:10:39.927Z,3.57
2018-09-17T05:13:08.707Z,3.97
2018-09-17T05:15:37.367Z,3.77
2018-09-17T05:18:06.144Z,4.20
2018-09-17T05:20:34.958Z,3.70
2018-09-17T05:23:03.659Z,3.73
2018-09-17T05:25:32.424Z,3.60
2018-09-17T05:28:01.136Z,3.93
2018-09-17T05:30:29.818Z,3.47
2018-09-17T05:32:58.491Z,4.00
2018-09-17T05:35:27.245Z,3.70
2018-09-17T05:37:55.978Z,3.47
2018-09-17T05:40:24.783Z,3.43
2018-09-17T05:42:53.546Z,3.43
2018-09-17T05:45:22.288Z,3.87
2018-09-17T05:47:50.963Z,3.30
2018-09-17T05:50:19.662Z,3.33
2018-09-17T05:52:48.334Z,4.30
2018-09-17T05:55:17.060Z,3.97
2018-09-17T05:57:45.776Z,4.47
2018-09-17T06:00:14.473Z,3.43
2018-09-17T06:02:43.136Z,3.70
2018-09-17T06:05:11.817Z,3.50
2018-09-17T06:07:40.514Z,3.80
2018-09-17T06:10:14.167Z,4.27
2018-09-17T06:12:44.009Z,3.90
2018-09-17T06:15:12.790Z,3.57
2018-09-17T06:17:41.519Z,3.83
2018-09-17T06:20:10.282Z,3.50
2018-09-17T06:22:38.959Z,3.77
2018-09-17T06:25:07.677Z,4.10
2018-09-17T06:27:36.367Z,4.00
2018-09-17T06:30:05.814Z,3.57
2018-09-17T06:32:34.643Z,4.17
2018-09-17T06:35:03.541Z,4.10
2018-09-17T06:37:32.271Z,4.13
2018-09-17T06:40:00.999Z,4.10
2018-09-17T06:42:29.691Z,4.00
2018-09-17T06:44:58.468Z,4.53
2018-09-17T06:47:27.090Z,4.53
2018-09-17T06:49:55.787Z,4.80
2018-09-17T06:52:24.460Z,4.40
2018-09-17T06:54:53.197Z,4.20
2018-09-17T06:57:21.802Z,4.13
2018-09-17T06:59:50.490Z,4.70
2018-09-17T07:02:19.258Z,4.10
2018-09-17T07:04:47.952Z,4.93
2018-09-17T07:07:16.686Z,4.10
2018-09-17T07:09:45.379Z,5.23
2018-09-17T07:12:14.048Z,4.93
2018-09-17T07:14:42.735Z,4.97
2018-09-17T07:17:11.398Z,4.73
2018-09-17T07:19:40.079Z,4.70
2018-09-17T07:22:08.785Z,5.00
2018-09-17T07:24:37.470Z,4.80
2018-09-17T07:27:06.138Z,4.80
2018-09-17T07:29:34.811Z,5.27
2018-09-17T07:32:03.540Z,5.77
2018-09-17T07:34:32.228Z,5.10
2018-09-17T07:37:00.936Z,5.00
2018-09-17T07:39:29.638Z,5.00
2018-09-17T07:41:58.381Z,4.77
2018-09-17T07:44:26.712Z,5.83
2018-09-17T07:46:55.401Z,5.43
2018-09-17T07:49:24.102Z,5.43
2018-09-17T07:51:52.825Z,5.40
2018-09-17T07:54:21.517Z,5.70
2018-09-17T07:56:50.236Z,6.53
2018-09-17T07:59:18.954Z,5.73
2018-09-17T08:01:47.683Z,6.40
2018-09-17T08:04:16.367Z,6.00
2018-09-17T08:06:45.064Z,6.83
2018-09-17T08:09:14.787Z,6.00
2018-09-17T08:11:44.104Z,5.90
2018-09-17T08:14:14.111Z,6.83
2018-09-17T08:16:42.975Z,6.27
2018-09-17T08:19:11.667Z,6.80
2018-09-17T08:21:40.503Z,5.97
2018-09-17T08:24:09.343Z,5.40
2018-09-17T08:26:38.050Z,6.80
2018-09-17T08:29:07.045Z,6.10
2018-09-17T08:31:35.799Z,6.30
2018-09-17T08:34:04.553Z,6.40
2018-09-17T08:36:33.253Z,6.37
2018-09-17T08:39:02.065Z,6.45
2018-09-17T08:41:30.809Z,5.95
2018-09-17T08:43:59.533Z,6.05
2018-09-17T08:46:28.262Z,6.62
2018-09-17T08:48:56.955Z,5.75
2018-09-17T08:51:25.639Z,5.60
2018-09-17T08:53:54.388Z,5.87
2018-09-17T08:58:29.836Z,6.25
2018-09-17T09:01:01.256Z,5.55
2018-09-17T09:03:34.114Z,6.08
2018-09-17T09:06:25.317Z,5.53
2018-09-17T09:08:53.979Z,6.40
2018-09-17T09:11:26.867Z,6.35
2018-09-17T09:14:01.333Z,5.40
2018-09-17T09:16:30.071Z,6.33
2018-09-17T09:18:58.741Z,7.22
2018-09-17T09:21:27.433Z,6.10
2018-09-17T09:23:56.121Z,6.45
2018-09-17T09:26:24.802Z,5.45
2018-09-17T09:28:53.575Z,5.62
2018-09-17T09:31:22.310Z,6.22
2018-09-17T09:33:51.028Z,5.03
2018-09-17T09:36:19.776Z,6.22
2018-09-17T09:38:48.455Z,5.60
2018-09-17T09:41:17.155Z,5.60
2018-09-17T09:43:46.358Z,4.53
2018-09-17T09:46:15.094Z,5.42
2018-09-17T09:48:43.795Z,4.45
2018-09-17T09:51:12.451Z,4.00
2018-09-17T09:53:41.200Z,3.92
2018-09-17T09:56:09.913Z,5.62
2018-09-17T09:58:38.585Z,5.78
2018-09-17T10:01:12.457Z,3.87
2018-09-17T10:03:43.636Z,4.10
2018-09-17T10:06:13.847Z,3.70
2018-09-17T10:08:47.857Z,3.80
2018-09-17T10:11:21.897Z,4.00
2018-09-17T10:13:55.856Z,3.52
2018-09-17T10:16:24.561Z,3.50
2018-09-17T10:18:58.551Z,3.20
2018-09-17T10:21:27.265Z,2.87
2018-09-17T10:23:55.932Z,3.02
2018-09-17T10:26:24.617Z,3.40
2018-09-17T10:28:53.303Z,3.15
2018-09-17T10:31:22.028Z,3.30
2018-09-17T10:33:50.709Z,3.20
2018-09-17T10:36:19.389Z,3.05
2018-09-17T10:38:48.132Z,3.00
2018-09-17T10:41:16.809Z,2.45
2018-09-17T10:43:45.771Z,3.00
2018-09-17T10:46:14.440Z,2.52
2018-09-17T10:48:43.147Z,2.50
2018-09-17T10:51:11.835Z,2.92
2018-09-17T10:53:40.516Z,2.15
2018-09-17T10:56:09.192Z,2.50
2018-09-17T10:58:37.916Z,2.67
2018-09-17T11:01:06.653Z,2.87
2018-09-17T11:03:35.381Z,2.45
2018-09-17T11:06:04.099Z,2.90
2018-09-17T11:08:32.778Z,3.40
2018-09-17T11:11:01.450Z,2.87
2018-09-17T11:13:30.179Z,2.98
2018-09-17T11:15:58.893Z,2.85
2018-09-17T11:18:27.605Z,2.90
2018-09-17T11:20:56.297Z,3.12
2018-09-17T11:23:24.990Z,2.80
2018-09-17T11:25:53.709Z,3.05
2018-09-17T11:28:22.399Z,2.95
2018-09-17T11:30:51.143Z,2.90
2018-09-17T11:33:19.827Z,2.75
2018-09-17T11:35:48.557Z,3.15
2018-09-17T11:38:17.266Z,3.20
2018-09-17T11:40:45.955Z,4.12
2018-09-17T11:43:14.639Z,2.80
2018-09-17T11:45:43.362Z,2.40
2018-09-17T11:48:12.111Z,3.15
2018-09-17T11:50:40.857Z,3.33
2018-09-17T11:53:09.566Z,3.25
2018-09-17T11:55:38.277Z,3.02
2018-09-17T11:58:07.030Z,3.00
2018-09-17T12:00:40.881Z,2.45
2018-09-17T12:03:14.852Z,3.50
2018-09-17T12:05:48.735Z,3.40
2018-09-17T12:08:18.605Z,3.90
2018-09-17T12:10:47.307Z,3.30
2018-09-17T12:13:15.964Z,3.62
2018-09-17T12:15:45.134Z,3.52
2018-09-17T12:18:14.473Z,3.70
2018-09-17T12:20:43.153Z,3.50
2018-09-17T12:23:11.721Z,3.50
2018-09-17T12:25:40.431Z,3.98
2018-09-17T12:28:09.310Z,3.60
2018-09-17T12:30:38.104Z,3.87
2018-09-17T12:33:06.814Z,3.85
2018-09-17T12:35:35.488Z,3.25
2018-09-17T12:38:04.737Z,4.60
2018-09-17T12:40:33.466Z,4.75
2018-09-17T12:43:02.166Z,3.55
2018-09-17T12:45:30.862Z,4.85
2018-09-17T12:47:59.525Z,4.50
2018-09-17T12:50:28.278Z,4.80
2018-09-17T12:52:56.966Z,3.87
2018-09-17T12:55:25.689Z,4.35
2018-09-17T12:57:54.397Z,4.33
2018-09-17T13:00:23.108Z,4.25
2018-09-17T13:02:51.807Z,4.00
2018-09-17T13:05:20.482Z,4.37
2018-09-17T13:07:49.155Z,4.78
2018-09-17T13:10:17.825Z,4.00
2018-09-17T13:12:46.592Z,3.65
2018-09-17T13:15:15.287Z,4.17
2018-09-17T13:17:43.990Z,3.90
2018-09-17T13:20:12.644Z,3.98
2018-09-17T13:25:40.446Z,4.42
2018-09-17T13:28:09.128Z,3.58
2018-09-17T13:30:37.857Z,4.45
2018-09-17T13:33:06.609Z,4.50
2018-09-17T13:35:35.333Z,3.85
2018-09-17T13:38:04.076Z,4.33
2018-09-17T13:40:32.817Z,4.12
2018-09-17T13:43:01.721Z,3.85
2018-09-17T13:45:30.417Z,3.85
2018-09-17T13:47:59.082Z,4.08
2018-09-17T13:50:27.425Z,3.98
2018-09-17T13:52:56.134Z,3.40
2018-09-17T13:55:24.919Z,3.40
2018-09-17T13:57:53.641Z,3.05
2018-09-17T14:00:22.355Z,2.72
2018-09-17T14:02:51.087Z,2.72
2018-09-17T14:05:19.780Z,2.85
2018-09-17T14:07:48.489Z,2.58
2018-09-17T14:10:17.253Z,3.05
2018-09-17T14:12:45.925Z,2.45
2018-09-17T14:15:14.677Z,2.50
2018-09-17T14:17:43.368Z,3.08
2018-09-17T14:20:12.076Z,2.98
2018-09-17T14:22:40.798Z,2.37
2018-09-17T14:25:09.508Z,2.85
2018-09-17T14:27:38.319Z,3.65
2018-09-17T14:30:06.706Z,3.30
2018-09-17T14:32:40.757Z,4.00
2018-09-17T14:35:09.709Z,2.60
2018-09-17T14:37:38.353Z,2.40
2018-09-17T14:40:07.102Z,2.80
2018-09-17T14:42:35.801Z,2.98
2018-09-17T14:45:04.546Z,2.58
2018-09-17T14:47:33.251Z,3.05
2018-09-17T14:50:01.983Z,2.90
2018-09-17T14:52:30.754Z,2.98
2018-09-17T14:54:59.385Z,2.72
2018-09-17T14:57:28.101Z,2.25
2018-09-17T14:59:56.829Z,2.22
2018-09-17T15:02:25.533Z,2.67
2018-09-17T15:04:54.229Z,2.30
2018-09-17T15:07:22.909Z,3.17
2018-09-17T15:09:51.575Z,2.45
2018-09-17T15:12:20.244Z,2.70
2018-09-17T15:14:49.061Z,2.30
2018-09-17T15:17:17.731Z,2.50
2018-09-17T15:19:46.658Z,2.50
2018-09-17T15:22:15.425Z,2.45
2018-09-17T15:24:44.013Z,2.05
2018-09-17T15:27:12.693Z,2.30
2018-09-17T15:29:41.461Z,2.50
2018-09-17T15:32:10.182Z,2.47
2018-09-17T15:34:38.851Z,2.40
2018-09-17T15:37:07.531Z,2.30
2018-09-17T15:39:36.271Z,2.30
2018-09-17T15:42:05.011Z,2.37
2018-09-17T15:44:33.717Z,2.33
2018-09-17T15:47:02.533Z,2.00
2018-09-17T15:49:31.225Z,2.00
2018-09-17T15:51:59.995Z,1.98
2018-09-17T15:54:28.647Z,1.77
2018-09-17T15:56:57.357Z,2.10
2018-09-17T15:59:26.036Z,2.25
2018-09-17T16:01:54.793Z,2.22
2018-09-17T16:04:23.483Z,1.77
2018-09-17T16:06:53.205Z,2.02
2018-09-17T16:09:22.347Z,2.00
2018-09-17T16:11:51.113Z,2.15
2018-09-17T16:14:19.816Z,2.50
2018-09-17T16:16:48.495Z,1.80
2018-09-17T16:19:17.198Z,2.20
2018-09-17T16:21:45.887Z,2.12
2018-09-17T16:24:14.606Z,2.05
2018-09-17T16:26:43.292Z,1.90
2018-09-17T16:29:12.461Z,1.85
2018-09-17T16:31:41.146Z,1.70
2018-09-17T16:34:09.865Z,2.30
2018-09-17T16:36:38.550Z,2.20
2018-09-17T16:39:09.403Z,2.05
2018-09-17T16:41:38.237Z,1.87
2018-09-17T16:44:07.090Z,1.92
2018-09-17T16:46:36.181Z,1.70
2018-09-17T16:49:04.491Z,1.85
2018-09-17T16:51:33.224Z,1.80
2018-09-17T16:54:01.894Z,1.92
2018-09-17T16:56:30.788Z,1.90
2018-09-17T16:58:59.571Z,1.90
2018-09-17T17:01:28.255Z,2.10
2018-09-17T17:03:56.926Z,1.98
2018-09-17T17:06:25.932Z,1.87
2018-09-17T17:08:54.652Z,1.90
2018-09-17T17:11:23.386Z,2.10
2018-09-17T17:13:52.051Z,1.95
2018-09-17T17:16:20.883Z,2.30
2018-09-17T17:18:49.683Z,2.27
2018-09-17T17:21:18.300Z,2.30
2018-09-17T17:23:46.956Z,2.20
2018-09-17T17:26:15.630Z,2.50
2018-09-17T17:28:44.409Z,2.75
2018-09-17T17:31:13.110Z,3.17
2018-09-17T17:33:41.789Z,2.92
2018-09-17T17:36:10.595Z,2.80
2018-09-17T17:38:39.274Z,2.90
2018-09-17T17:41:08.500Z,2.70
2018-09-17T17:43:37.225Z,2.20
2018-09-17T17:46:06.452Z,2.62
2018-09-17T17:48:35.145Z,2.50
2018-09-17T17:51:03.898Z,2.15
2018-09-17T17:53:32.593Z,2.20
2018-09-17T17:56:01.296Z,2.12
2018-09-17T17:58:29.970Z,2.27
2018-09-17T18:00:58.755Z,2.40
2018-09-17T18:03:27.432Z,2.55
2018-09-17T18:05:56.146Z,2.60
2018-09-17T18:08:24.807Z,2.35
2018-09-17T18:10:53.525Z,2.60
2018-09-17T18:13:22.247Z,2.55
2018-09-17T18:15:50.998Z,2.67
2018-09-17T18:18:19.690Z,3.50
2018-09-17T18:20:48.444Z,2.35
2018-09-17T18:23:17.166Z,2.60
2018-09-17T18:25:45.850Z,2.83
2018-09-17T18:28:14.521Z,2.80
2018-09-17T18:30:43.281Z,2.37
2018-09-17T18:33:12.020Z,2.58
2018-09-17T18:35:40.694Z,2.70
2018-09-17T18:38:09.361Z,2.25
2018-09-17T18:40:38.132Z,2.65
2018-09-17T18:43:06.839Z,2.33
2018-09-17T18:45:35.657Z,2.37
2018-09-17T18:48:04.409Z,2.37
2018-09-17T18:50:33.097Z,2.22
2018-09-17T18:53:01.891Z,2.37
2018-09-17T18:55:30.561Z,2.17
2018-09-17T18:57:59.254Z,2.33
2018-09-17T19:00:28.007Z,2.40
2018-09-17T19:02:56.932Z,2.47
2018-09-17T19:05:25.437Z,2.75
2018-09-17T19:07:54.126Z,2.30
2018-09-17T19:10:22.999Z,2.62
2018-09-17T19:12:51.834Z,2.60
2018-09-17T19:15:25.860Z,2.87
2018-09-17T19:17:54.813Z,2.70
2018-09-17T19:20:23.600Z,2.77
2018-09-17T19:22:57.561Z,2.47
2018-09-17T19:25:26.396Z,2.77
2018-09-17T19:28:00.517Z,2.58
2018-09-17T19:30:29.206Z,2.90
2018-09-17T19:32:57.907Z,3.12
2018-09-17T19:35:26.660Z,3.35
2018-09-17T19:38:00.823Z,3.10
2018-09-17T19:40:29.584Z,2.60
2018-09-17T19:42:58.388Z,3.27
2018-09-17T19:45:32.289Z,3.00
2018-09-17T19:48:01.044Z,2.70
2018-09-17T19:50:35.064Z,2.33
2018-09-17T19:53:03.744Z,2.62
2018-09-17T19:55:32.428Z,2.80
2018-09-17T19:58:06.460Z,2.60
2018-09-17T20:00:35.282Z,2.62
2018-09-17T20:03:03.941Z,2.62
2018-09-17T20:05:37.982Z,3.15
2018-09-17T20:08:06.725Z,2.70
2018-09-17T20:10:35.573Z,2.70
2018-09-17T20:13:04.304Z,3.05
2018-09-17T20:15:33.019Z,2.90
2018-09-17T20:18:01.671Z,2.70
2018-09-17T20:20:30.452Z,4.00
2018-09-17T20:22:59.141Z,2.92
2018-09-17T20:25:27.830Z,2.75
2018-09-17T20:27:56.562Z,2.72
2018-09-17T20:30:25.312Z,2.90
2018-09-17T20:32:54.070Z,3.05
2018-09-17T20:35:23.062Z,2.80
2018-09-17T20:37:51.764Z,2.50
2018-09-17T20:40:20.557Z,3.17
2018-09-17T20:42:49.266Z,2.90
2018-09-17T20:45:17.936Z,2.65
2018-09-17T20:47:46.622Z,2.70
2018-09-17T20:50:15.298Z,3.27
2018-09-17T20:52:43.996Z,3.08
2018-09-17T20:55:12.766Z,3.05
2018-09-17T20:57:41.446Z,2.72
2018-09-17T21:00:10.193Z,2.92
2018-09-17T21:02:38.892Z,3.00
2018-09-17T21:05:07.630Z,2.77
2018-09-17T21:07:36.262Z,3.20
2018-09-17T21:10:04.927Z,2.92
2018-09-17T21:12:33.647Z,2.87
2018-09-17T21:15:02.309Z,2.98
2018-09-17T21:17:31.074Z,2.98
2018-09-17T21:19:59.773Z,2.98
2018-09-17T21:22:28.460Z,2.80
2018-09-17T21:24:57.294Z,3.02
2018-09-17T21:27:25.926Z,2.72
2018-09-17T21:29:54.664Z,3.33
2018-09-17T21:32:23.370Z,3.17
2018-09-17T21:34:52.089Z,2.95
2018-09-17T21:37:20.819Z,3.30
2018-09-17T21:39:49.407Z,3.67
2018-09-17T21:42:18.072Z,3.10
2018-09-17T21:44:46.829Z,3.20
2018-09-17T21:47:15.507Z,3.60
2018-09-17T21:49:44.450Z,3.00
2018-09-17T21:52:13.132Z,2.67
2018-09-17T21:54:41.829Z,3.58
2018-09-17T21:57:10.693Z,3.35
2018-09-17T21:59:39.416Z,3.25
2018-09-17T22:02:08.990Z,3.02
2018-09-17T22:04:37.722Z,3.40
2018-09-17T22:07:06.572Z,3.20
2018-09-17T22:09:35.271Z,3.12
2018-09-17T22:12:03.970Z,3.35
2018-09-17T22:14:32.648Z,3.27
2018-09-17T22:17:01.290Z,3.70
2018-09-17T22:19:29.981Z,3.10
2018-09-17T22:21:58.655Z,3.80
2018-09-17T22:24:27.363Z,3.55
2018-09-17T22:26:56.010Z,3.33
2018-09-17T22:29:24.687Z,3.25
2018-09-17T22:31:53.372Z,3.35
2018-09-17T22:34:22.043Z,2.90
2018-09-17T22:36:50.746Z,3.20
2018-09-17T22:39:19.375Z,3.30
2018-09-17T22:41:48.155Z,3.30
2018-09-17T22:44:16.878Z,3.22
2018-09-17T22:46:45.559Z,3.10
2018-09-17T22:49:14.228Z,2.95
2018-09-17T22:51:42.920Z,2.90
2018-09-17T22:54:11.621Z,3.40
2018-09-17T22:56:40.320Z,3.45
2018-09-17T22:59:09.039Z,3.05
2018-09-17T23:01:37.742Z,3.10
2018-09-17T23:04:06.445Z,3.22
2018-09-17T23:06:35.161Z,3.52
2018-09-17T23:09:04.598Z,3.35
2018-09-17T23:11:33.273Z,3.85
2018-09-17T23:14:02.077Z,3.02
2018-09-17T23:16:30.764Z,3.00
2018-09-17T23:18:59.413Z,3.52
2018-09-17T23:21:28.130Z,3.50
2018-09-17T23:23:56.816Z,3.25
2018-09-17T23:26:25.676Z,3.35
2018-09-17T23:28:54.334Z,3.80
2018-09-17T23:31:23.056Z,3.52
2018-09-17T23:33:51.745Z,3.50
2018-09-17T23:36:20.433Z,3.35
2018-09-17T23:38:49.111Z,3.33
2018-09-17T23:41:17.801Z,3.47
2018-09-17T23:43:46.578Z,3.37
2018-09-17T23:46:15.294Z,3.33
2018-09-17T23:48:43.961Z,3.85
2018-09-17T23:51:12.637Z,3.50
2018-09-17T23:53:41.337Z,3.52
2018-09-17T23:56:10.035Z,3.35
2018-09-17T23:58:38.799Z,3.50
